Accueil
METAR-TAF:

METAR-TAF

Aéroports :

Gilze-Rijen, Pays-Bas

latitude: 51-34N, longitude: 004-56E, altitude: 15 m

Observation

Le bulletin a été fait il y a 24 minutes, à 08:25 UTC
Vent 10 kt de ouest/nord-ouest, variant entre sud-ouest et ouest/nord-ouest
Température 20°C
Humidité 60%
Pression 1017 hPa
Visibilité 10 km ou plus
pas de nuages en-dessous de 1500 mètres et pas de cumulonimbus.

METAR: EHGR 230825Z AUTO 28009KT 220V300 9999 OVC310 20/12 Q1017 BLU 29010KT CAVOK

Heure: 10:49 (08:49 UTC)

Prévision

Le bulletin a été fait il y a 3 heures et 40 minutes, à 05:09 UTC
Prévision valable du 23 à 05 UTC au 23 à 17 UTC
Vent 5 kt de sud-ouest
Visibilité 10 km ou plus
pas de nuages en-dessous de 1500 mètres et pas de cumulonimbus.
Evoluant progressivement
du 23 à 09 UTC au 23 à 12 UTC
Vent 12 kt de ouest avec des rafales jusqu'à 23 kt

TAF: EHGR 230509Z 2305/2317 23005KT CAVOK BECMG 2309/2312 28012G23KT

Observations et prévisions météorologiques de plus de 4000 aéroports (messages METAR et TAF).

Les stations disponibles sont représentées par des disques jaunes et rouges sur la carte.

Passer la souris dessus pour voir le nom de la station.

Cliquer dessus pour voir les observations et prévisions météorologiques.

Pour changer de carte: cliquez sur les boutons verts avec une croix noire pour zoomer, sur le bouton vert avec un tiret pour effectuer un zoom arrière, ou sur les flèches vertes pour les cartes adjacentes.


METAR-TAF: